Accueil
METAR-TAF:

METAR-TAF

Aéroports :

Aéroport de Trévise

Trévise, Italie

latitude: 45-39N, longitude: 012-11E, altitude: 18 m

Observation

Le bulletin a été fait il y a 40 minutes, à 03:50 UTC
Vent 3 kt de ouest
Température 14°C
Humidité 94%
Pression 1010 hPa
Visibilité 10 km ou plus

METAR: LIPH 200350Z AUTO 27003KT 9999 NCD 14/13 Q1010

Heure: 06:30 (04:30 UTC)

Prévision

Le bulletin a été fait il y a 5 heures et 30 minutes, à 23:00 UTC
Prévision valable du 20 à 00 UTC au 20 à 24 UTC
Vent 7 kt de nord
Visibilité 10 km ou plus
Nuages épars à une hauteur de 4000 ft
Evoluant progressivement
du 20 à 10 UTC au 20 à 12 UTC
Vent 10 kt de est/nord-est

TAF: LIPH 192300Z 2000/2024 01007KT 9999 SCT040 BECMG 2010/2012 07010KT

Observations et prévisions météorologiques de plus de 4000 aéroports (messages METAR et TAF).

Les stations disponibles sont représentées par des disques jaunes et rouges sur la carte.

Passer la souris dessus pour voir le nom de la station.

Cliquer dessus pour voir les observations et prévisions météorologiques.

Pour changer de carte: cliquez sur les boutons verts avec une croix noire pour zoomer, sur le bouton vert avec un tiret pour effectuer un zoom arrière, ou sur les flèches vertes pour les cartes adjacentes.


METAR-TAF: